Latest Weather Observations for Lismore Airport

IDN60801

Issued at 6:32 pm EDT Sunday 15 December 2019 (issued every 10 minutes, with the page automatically refreshed every 10 minutes)

About weather observations | Map of weather stations | Latest weather observations for NSW | Other Formats
Station Details ID: 058214 Name: LISMORE AIRPORT AWS Lat: -28.83 Lon: 153.26 Height: 9.21 m
Data from the previous 72 hours. | See also: Recent months at Lismore Airport
Date/Time
EDT
Temp
°C
App
Temp
°C
Dew
Point
°C
Rel
Hum
%
Delta-T
°C
Wind Press
QNH
hPa
Press
MSL
hPa
Rain since
9am
mm
Dir  Spd
km/h
Gust
km/h
Spd
kts
Gust
kts
15/06:30pm 29.6 29.8 21.3 61 5.6 NNE 22 30 12 16 1004.8 1004.8 0.0
15/06:00pm 29.7 28.6 21.1 60 5.8 NNE 28 35 15 19 1004.3 1004.3 0.0
15/05:30pm 30.3 29.4 21.4 59 6.0 NE 28 41 15 22 1004.1 1004.1 0.0
15/05:00pm 30.9 30.0 21.4 57 6.4 NE 28 39 15 21 1004.2 1004.2 0.0
15/04:30pm 31.5 31.2 21.1 54 7.0 NE 24 35 13 19 1004.3 1004.3 0.0
15/04:00pm 32.3 31.3 21.2 52 7.5 NE 28 41 15 22 1004.9 1004.9 0.0
15/03:30pm 33.1 32.1 21.3 50 8.0 NE 28 39 15 21 1004.9 1004.9 0.0
15/03:00pm 33.6 33.7 21.1 48 8.4 NE 22 30 12 16 1005.2 1005.2 0.0
15/02:30pm 35.2 35.5 20.3 41 10.0 NNE 19 28 10 15 1005.6 1005.6 0.0
15/02:00pm 34.6 34.8 19.4 40 10.1 NNE 17 28 9 15 1006.1 1006.1 0.0
15/01:30pm 34.0 36.4 18.9 41 9.9 NNW 4 13 2 7 1006.7 1006.7 0.0
15/01:00pm 33.3 34.3 18.6 41 9.6 NNW 11 20 6 11 1007.3 1007.3 0.0
15/12:30pm 32.5 34.4 19.7 46 8.4 NNW 9 19 5 10 1007.9 1007.9 0.0
15/12:00pm 31.0 33.7 19.4 50 7.6 SE 4 13 2 7 1008.2 1008.2 0.0
15/11:30am 30.9 33.1 19.3 50 7.6 SSE 6 13 3 7 1009.0 1009.0 0.0
15/11:00am 30.2 32.7 19.9 54 6.8 WSW 6 13 3 7 1009.3 1009.3 0.0
15/10:30am 29.5 32.5 20.9 60 5.7 SE 6 13 3 7 1009.7 1009.7 0.0
15/10:00am 28.6 32.1 20.3 60 5.5 NNW 2 9 1 5 1009.9 1009.9 0.0
15/09:30am 27.1 31.0 20.4 66 4.4 CALM 0 0 0 0 1010.1 1010.1 0.0
15/09:00am 26.3 28.7 20.8 71 3.6 SSE 9 15 5 8 1010.1 1010.1 0.0
15/08:30am 24.9 28.9 20.6 77 2.8 CALM 0 0 0 0 1010.3 1010.3 0.0
15/08:00am 24.7 28.9 21.0 80 2.4 CALM 0 0 0 0 1010.3 1010.3 0.0
15/07:30am 22.1 26.1 20.6 91 1.0 CALM 0 0 0 0 1010.2 1010.2 0.0
15/07:00am 21.1 24.9 20.1 94 0.6 CALM 0 2 0 1 1009.6 1009.6 0.0
15/06:44am 20.3 23.7 19.3 94 0.6 CALM 0 0 0 0 1009.6 1009.6 0.0
15/06:30am 20.0 23.3 19.2 95 0.5 CALM 0 0 0 0 1009.5 1009.5 0.0
15/06:00am 19.1 22.0 18.1 94 0.6 CALM 0 0 0 0 1009.6 1009.6 0.0
15/05:30am 18.9 21.7 17.9 94 0.6 CALM 0 0 0 0 1009.6 1009.6 0.0
15/05:13am 19.0 21.7 17.8 93 0.7 CALM 0 0 0 0 1009.2 1009.2 0.0
15/05:09am 18.9 21.6 17.7 93 0.7 CALM 0 0 0 0 1009.2 1009.2 0.0
15/05:00am 19.0 21.7 17.8 93 0.7 CALM 0 0 0 0 1009.1 1009.1 0.0
15/04:42am 19.6 22.6 18.4 93 0.7 CALM 0 0 0 0 1008.9 1008.9 0.0
15/04:30am 20.1 23.4 19.1 94 0.6 CALM 0 0 0 0 1008.8 1008.8 0.0
15/04:09am 19.8 22.1 18.6 93 0.7 NW 4 9 2 5 1008.9 1008.9 0.0
15/04:00am 19.8 21.2 18.6 93 0.7 NNW 9 11 5 6 1008.9 1008.9 0.0
15/03:59am 19.9 21.3 18.7 93 0.7 NNW 9 11 5 6 1008.9 1008.9 0.0
15/03:30am 19.9 20.9 18.7 93 0.7 N 11 13 6 7 1008.6 1008.6 0.0
15/03:00am 19.7 21.9 18.4 92 0.8 NNW 4 11 2 6 1008.7 1008.7 0.0
15/02:30am 20.3 23.6 19.0 92 0.8 CALM 0 0 0 0 1008.8 1008.8 0.0
15/02:00am 20.3 23.5 18.8 91 0.9 CALM 0 0 0 0 1009.0 1009.0 0.0
15/01:30am 20.3 23.4 18.6 90 1.1 CALM 0 0 0 0 1009.1 1009.1 0.0
15/01:00am 20.3 23.2 18.2 88 1.3 CALM 0 0 0 0 1009.1 1009.1 0.0
15/12:36am 20.9 24.0 18.7 87 1.4 CALM 0 0 0 0 1009.3 1009.3 0.0
15/12:30am 21.0 24.2 18.8 87 1.4 CALM 0 0 0 0 1009.4 1009.4 0.0
15/12:13am 21.4 24.7 19.0 86 1.5 CALM 0 0 0 0 1009.5 1009.5 0.0
15/12:00am 21.8 25.1 19.0 84 1.8 CALM 0 6 0 3 1009.4 1009.4 0.0
 
Date/Time
EDT
Temp
°C
App
Temp
°C
Dew
Point
°C
Rel
Hum
%
Delta-T
°C
Wind Press
QNH
hPa
Press
MSL
hPa
Rain since
9am
mm
Dir  Spd
km/h
Gust
km/h
Spd
kts
Gust
kts
14/11:30pm 22.3 24.2 19.7 85 1.7 NNW 9 11 5 6 1009.6 1009.6 0.0
14/11:00pm 23.5 25.5 20.0 81 2.3 NNE 9 15 5 8 1009.6 1009.6 0.0
14/10:30pm 23.7 25.6 19.8 79 2.5 N 9 15 5 8 1009.3 1009.3 0.0
14/10:00pm 24.4 25.3 20.1 77 2.8 NNE 15 22 8 12 1009.1 1009.1 0.0
14/09:30pm 24.6 24.9 20.3 77 2.8 NNE 19 26 10 14 1008.6 1008.6 0.0
14/09:00pm 24.5 25.2 20.4 78 2.7 NNE 17 22 9 12 1008.3 1008.3 0.0
14/08:30pm 24.7 24.8 20.4 77 2.8 NNE 20 33 11 18 1007.7 1007.7 0.0
14/08:00pm 25.3 25.0 20.3 74 3.3 NE 22 33 12 18 1007.3 1007.3 0.0
14/07:30pm 25.8 25.5 20.4 72 3.5 NE 22 32 12 17 1007.0 1007.0 0.0
14/07:00pm 26.4 25.3 20.3 69 4.0 NE 26 39 14 21 1006.6 1006.6 0.0
14/06:30pm 27.2 26.0 20.0 64 4.7 NE 26 39 14 21 1006.0 1006.0 0.0
14/06:00pm 27.9 26.6 19.9 61 5.2 NE 26 37 14 20 1005.8 1005.8 0.0
14/05:30pm 28.3 26.6 19.8 60 5.5 NE 28 43 15 23 1005.8 1005.8 0.0
14/05:00pm 29.3 27.9 19.6 56 6.3 NE 26 39 14 21 1005.8 1005.8 0.0
14/04:30pm 30.0 28.4 20.0 55 6.6 NE 28 39 15 21 1005.9 1005.9 0.0
14/04:00pm 29.9 28.1 19.6 54 6.8 NE 28 37 15 20 1006.1 1006.1 0.0
14/03:30pm 31.3 30.0 19.9 50 7.5 NE 26 37 14 20 1006.3 1006.3 0.0
14/03:00pm 32.2 32.6 19.1 45 8.6 NE 15 22 8 12 1006.5 1006.5 0.0
14/02:30pm 32.0 32.2 14.6 34 10.7 NNW 7 13 4 7 1007.0 1007.0 0.0
14/02:00pm 32.3 32.7 15.3 35 10.6 SSE 7 15 4 8 1007.5 1007.5 0.0
14/01:30pm 31.6 33.1 16.7 40 9.4 SSW 4 13 2 7 1008.0 1008.0 0.0
14/01:00pm 29.4 30.7 17.6 49 7.5 WNW 7 15 4 8 1008.7 1008.7 0.0
14/12:30pm 30.8 32.0 18.2 47 8.1 NE 9 15 5 8 1009.1 1009.1 0.0
14/12:00pm 28.9 30.1 17.4 49 7.3 WSW 7 17 4 9 1009.5 1009.5 0.0
14/11:30am 27.9 28.6 18.0 55 6.3 N 11 17 6 9 1009.9 1009.9 0.0
14/11:00am 28.8 30.1 19.4 56 6.1 NNE 11 17 6 9 1010.0 1010.0 0.0
14/10:30am 26.7 28.2 18.8 62 5.1 NW 9 15 5 8 1010.4 1010.4 0.0
14/10:00am 26.4 28.5 19.0 63 4.8 NW 6 15 3 8 1010.7 1010.7 0.0
14/09:30am 25.0 26.5 18.9 69 3.9 N 9 17 5 9 1010.8 1010.8 0.0
14/09:13am 24.6 26.3 19.4 73 3.3 NNW 9 15 5 8 1011.0 1011.0 0.0
14/09:00am 23.9 24.7 19.0 74 3.1 NW 13 17 7 9 1011.2 1011.2 0.0
14/08:30am 23.1 24.6 18.8 77 2.7 NW 9 13 5 7 1011.4 1011.4 0.0
14/08:00am 22.5 25.7 18.9 80 2.3 CALM 0 0 0 0 1011.5 1011.5 0.0
14/07:30am 22.1 25.3 18.9 82 2.0 CALM 0 2 0 1 1011.2 1011.2 0.0
14/07:00am 21.4 24.7 19.1 87 1.5 CALM 0 0 0 0 1011.0 1011.0 0.0
14/06:40am 21.1 24.4 19.2 89 1.2 CALM 0 0 0 0 1010.9 1010.9 0.0
14/06:30am 20.9 24.2 19.2 90 1.1 CALM 0 0 0 0 1010.8 1010.8 0.0
14/06:00am 20.2 23.1 18.3 89 1.2 CALM 0 0 0 0 1010.5 1010.5 0.0
14/05:51am 19.7 22.3 17.5 87 1.3 CALM 0 0 0 0 1010.4 1010.4 0.0
14/05:30am 20.5 23.4 18.1 86 1.5 CALM 0 0 0 0 1010.1 1010.1 0.0
14/05:22am 20.7 23.6 18.1 85 1.6 CALM 0 0 0 0 1010.2 1010.2 0.0
14/05:00am 21.2 24.4 18.8 86 1.5 CALM 0 0 0 0 1010.2 1010.2 0.0
14/04:30am 21.3 24.6 19.0 87 1.5 CALM 0 0 0 0 1010.4 1010.4 0.0
14/04:15am 21.3 24.6 19.0 87 1.5 CALM 0 0 0 0 1010.4 1010.4 0.0
14/04:00am 21.3 24.6 19.0 87 1.5 CALM 0 0 0 0 1010.5 1010.5 0.0
14/03:30am 21.1 24.4 19.0 88 1.3 CALM 0 0 0 0 1010.7 1010.7 0.0
14/03:00am 21.2 24.3 18.6 85 1.6 CALM 0 0 0 0 1010.7 1010.7 0.0
14/02:38am 21.3 24.5 18.9 86 1.5 CALM 0 0 0 0 1010.7 1010.7 0.0
14/02:30am 21.4 24.7 19.0 86 1.5 CALM 0 0 0 0 1010.8 1010.8 0.0
14/02:00am 21.4 24.7 19.1 87 1.5 CALM 0 0 0 0 1011.2 1011.2 0.0
14/01:30am 21.3 24.6 19.0 87 1.5 CALM 0 0 0 0 1011.2 1011.2 0.0
14/01:00am 21.5 24.8 19.2 87 1.5 CALM 0 0 0 0 1011.6 1011.6 0.0
14/12:39am 21.5 24.8 19.2 87 1.5 CALM 0 0 0 0 1011.6 1011.6 0.0
14/12:30am 21.4 24.7 19.1 87 1.5 CALM 0 0 0 0 1011.7 1011.7 0.0
14/12:00am 21.3 24.6 19.2 88 1.3 CALM 0 0 0 0 1011.8 1011.8 0.0
 
Date/Time
EDT
Temp
°C
App
Temp
°C
Dew
Point
°C
Rel
Hum
%
Delta-T
°C
Wind Press
QNH
hPa
Press
MSL
hPa
Rain since
9am
mm
Dir  Spd
km/h
Gust
km/h
Spd
kts
Gust
kts
13/11:49pm 21.3 24.6 19.0 87 1.5 CALM 0 0 0 0 1011.9 1011.9 0.0
13/11:30pm 21.2 24.4 18.9 87 1.4 CALM 0 0 0 0 1011.9 1011.9 0.0
13/11:08pm 20.9 22.7 18.7 87 1.4 S 7 9 4 5 1012.0 1012.0 0.0
13/11:00pm 21.0 22.7 18.6 86 1.5 SSE 7 11 4 6 1012.0 1012.0 0.0
13/10:48pm 21.3 22.7 18.7 85 1.6 SSE 9 11 5 6 1011.8 1011.8 0.0
13/10:30pm 21.8 22.6 19.0 84 1.8 SE 13 19 7 10 1011.7 1011.7 0.0
13/10:04pm 21.7 23.4 19.3 86 1.5 S 9 13 5 7 1012.3 1012.3 0.0
13/10:00pm 21.7 23.4 19.3 86 1.5 S 9 13 5 7 1012.2 1012.2 0.0
13/09:30pm 21.9 23.1 19.1 84 1.8 SE 11 19 6 10 1011.4 1011.4 0.0
13/09:00pm 22.0 22.9 19.2 84 1.8 SSE 13 19 7 10 1011.2 1011.2 0.0
13/08:30pm 22.2 22.8 19.4 84 1.8 SSE 15 19 8 10 1011.0 1011.0 0.0
13/08:00pm 22.5 22.2 19.5 83 1.9 S 20 28 11 15 1011.0 1011.0 0.0
13/07:30pm 23.4 24.4 19.5 79 2.5 SSE 13 19 7 10 1009.8 1009.8 0.0
13/07:00pm 24.4 24.5 17.4 65 4.4 SE 13 17 7 9 1009.8 1009.8 0.0
13/06:30pm 24.7 25.5 17.4 64 4.5 NNE 9 15 5 8 1009.2 1009.2 0.0
13/06:00pm 25.0 25.0 17.2 62 4.9 NE 13 20 7 11 1009.5 1009.5 0.0
13/05:30pm 25.1 24.7 18.8 68 4.0 NE 19 28 10 15 1009.2 1009.2 0.0
13/05:00pm 26.0 25.3 19.6 68 4.1 NE 22 32 12 17 1009.3 1009.3 0.0
13/04:30pm 25.4 25.3 20.0 72 3.5 NE 20 26 11 14 1009.0 1009.0 0.0
13/04:00pm 27.2 29.4 20.3 66 4.5 NNE 9 19 5 10 1008.9 1008.9 0.0
13/03:30pm 27.3 30.0 19.4 62 5.1 SSW 4 11 2 6 1009.5 1009.5 0.0
13/03:00pm 28.3 30.6 20.6 63 5.1 NNW 9 15 5 8 1009.7 1009.7 0.0
13/02:30pm 27.6 29.6 19.9 63 5.0 N 9 19 5 10 1010.2 1010.2 0.0
13/02:00pm 26.5 26.9 18.9 63 4.9 NNE 15 20 8 11 1010.4 1010.4 0.0
13/01:30pm 27.3 27.6 20.4 66 4.5 NE 19 24 10 13 1010.7 1010.7 0.0
13/01:00pm 26.1 26.7 20.2 70 3.9 NE 17 24 9 13 1011.1 1011.1 0.0
13/12:30pm 24.0 24.7 19.7 77 2.8 NE 15 22 8 12 1011.3 1011.3 0.0
13/12:01pm 23.9 24.1 19.4 76 2.9 NE 17 24 9 13 1011.4 1011.4 0.0
13/12:00pm 24.0 24.3 19.5 76 2.9 NE 17 24 9 13 1011.5 1011.5 0.0
13/11:30am 24.0 24.3 19.7 77 2.8 NE 17 22 9 12 1011.7 1011.7 0.0
13/11:06am 24.6 25.0 19.9 75 3.0 NE 17 20 9 11 1011.6 1011.6 0.0
13/11:00am 24.8 25.6 19.8 74 3.2 NE 15 20 8 11 1011.5 1011.5 0.0
13/10:30am 25.5 27.1 19.9 71 3.6 NE 11 19 6 10 1011.5 1011.5 0.0
13/10:00am 24.7 25.3 19.5 73 3.3 ENE 15 20 8 11 1011.6 1011.6 0.0
13/09:52am 24.6 25.8 19.9 75 3.0 ENE 13 20 7 11 1011.6 1011.6 0.0
13/09:30am 24.2 24.8 20.3 79 2.5 E 17 22 9 12 1011.6 1011.6 0.0
13/09:00am 23.9 24.6 20.4 81 2.3 SSE 17 22 9 12 1011.7 1011.7 0.0
13/08:30am 23.8 23.8 20.1 80 2.4 SSE 20 28 11 15 1011.8 1011.8 0.0
13/08:00am 22.8 24.2 21.1 90 1.1 S 15 20 8 11 1011.7 1011.7 0.0
13/07:30am 22.5 23.7 20.6 89 1.2 SSW 15 20 8 11 1011.7 1011.7 0.0
13/07:00am 22.3 23.6 20.2 88 1.4 S 13 17 7 9 1011.7 1011.7 0.0
13/06:30am 22.0 23.8 20.3 90 1.1 S 11 15 6 8 1011.5 1011.5 0.0
13/06:00am 21.9 22.9 20.2 90 1.1 S 15 19 8 10 1011.4 1011.4 0.0
13/05:30am 21.9 22.8 20.0 89 1.2 S 15 22 8 12 1011.1 1011.1 0.0
13/05:00am 22.2 22.7 20.1 88 1.4 S 17 22 9 12 1010.8 1010.8 0.0
13/04:30am 22.2 23.4 19.9 87 1.5 S 13 17 7 9 1010.8 1010.8 0.0
13/04:00am 22.4 22.8 19.9 86 1.6 S 17 22 9 12 1010.9 1010.9 0.0
13/03:30am 22.8 23.0 20.1 85 1.7 S 19 24 10 13 1010.9 1010.9 0.0
13/03:00am 23.1 23.6 20.1 83 1.9 SSE 17 24 9 13 1010.7 1010.7 0.0
13/02:30am 23.3 23.4 20.4 84 1.9 SSE 20 24 11 13 1010.6 1010.6 0.0
13/02:00am 23.4 24.7 20.9 86 1.6 S 15 20 8 11 1010.8 1010.8 0.0
13/01:30am 23.6 26.1 21.1 86 1.6 S 9 13 5 7 1011.0 1011.0 0.0
13/01:00am 23.5 26.0 21.0 86 1.6 S 9 13 5 7 1011.3 1011.3 0.0
13/12:58am 23.5 26.0 21.0 86 1.6 S 9 13 5 7 1011.3 1011.3 0.0
13/12:30am 23.8 26.5 21.3 86 1.6 S 9 11 5 6 1011.6 1011.6 0.0
13/12:04am 24.0 25.9 21.3 85 1.8 SSE 13 17 7 9 1012.0 1012.0 0.0
13/12:00am 24.0 25.9 21.3 85 1.8 S 13 17 7 9 1012.1 1012.1 0.0
 
Date/Time
EDT
Temp
°C
App
Temp
°C
Dew
Point
°C
Rel
Hum
%
Delta-T
°C
Wind Press
QNH
hPa
Press
MSL
hPa
Rain since
9am
mm
Dir  Spd
km/h
Gust
km/h
Spd
kts
Gust
kts
12/11:30pm 24.1 25.6 21.2 84 1.9 SSE 15 19 8 10 1012.1 1012.1 0.0
12/11:00pm 24.3 26.6 21.4 84 1.9 SSE 11 13 6 7 1011.8 1011.8 0.0
12/10:30pm 24.3 26.2 21.4 84 1.9 S 13 17 7 9 1011.7 1011.7 0.0
12/10:00pm 25.1 29.2 21.6 81 2.3 E 2 9 1 5 1011.4 1011.4 0.0
12/09:30pm 24.6 27.6 21.3 82 2.2 ESE 7 11 4 6 1011.4 1011.4 0.0
12/09:00pm 24.5 25.7 21.4 83 2.0 SE 17 22 9 12 1011.4 1011.4 0.0
12/08:30pm 24.6 26.1 21.3 82 2.2 SSE 15 20 8 11 1011.1 1011.1 0.0
12/08:00pm 24.7 26.2 21.2 81 2.3 SE 15 22 8 12 1010.4 1010.4 0.0
12/07:30pm 25.6 27.1 21.3 77 2.8 SE 15 22 8 12 1010.2 1010.2 0.0
12/07:00pm 26.0 28.5 21.0 74 3.3 ESE 9 13 5 7 1010.4 1010.4 0.0

Other formats

Comma delimited format used in spreadsheet applications
http://www.bom.gov.au/fwo/IDN60801/IDN60801.94572.axf

JavaScript Object Notation format (JSON) in row-major order
http://www.bom.gov.au/fwo/IDN60801/IDN60801.94572.json

Data quality

Most of these data are generated automatically and are frequently updated. Quality checks on data are not normally performed. It is possible for incorrect values to appear. Refer to information at About Latest Weather Observations and please check the disclaimer before using these data.